createdAt,value
2023-01-15T00:02:17.114Z,4.40
2023-01-15T00:04:50.001Z,4.60
2023-01-15T00:07:23.064Z,4.70
2023-01-15T00:09:56.101Z,4.47
2023-01-15T00:12:29.096Z,4.30
2023-01-15T00:15:01.778Z,4.00
2023-01-15T00:17:34.534Z,4.30
2023-01-15T00:20:07.588Z,4.40
2023-01-15T00:22:40.634Z,4.30
2023-01-15T00:25:32.290Z,4.20
2023-01-15T00:28:05.187Z,3.80
2023-01-15T00:30:38.391Z,3.60
2023-01-15T00:33:11.187Z,4.00
2023-01-15T00:35:43.950Z,4.10
2023-01-15T00:38:17.442Z,4.13
2023-01-15T00:40:51.562Z,4.20
2023-01-15T00:43:28.559Z,4.00
2023-01-15T00:46:01.520Z,4.23
2023-01-15T00:48:34.339Z,3.97
2023-01-15T00:51:07.376Z,4.60
2023-01-15T00:53:40.206Z,4.20
2023-01-15T00:56:13.224Z,4.30
2023-01-15T00:58:46.111Z,4.40
2023-01-15T01:01:19.191Z,4.30
2023-01-15T01:03:53.262Z,4.50
2023-01-15T01:06:26.620Z,4.30
2023-01-15T01:09:00.028Z,4.40
2023-01-15T01:11:34.249Z,4.30
2023-01-15T01:14:07.158Z,4.37
2023-01-15T01:16:40.953Z,4.30
2023-01-15T01:19:28.176Z,4.03
2023-01-15T01:22:01.148Z,4.17
2023-01-15T01:24:33.971Z,4.30
2023-01-15T01:27:09.338Z,4.00
2023-01-15T01:29:42.208Z,3.60
2023-01-15T01:32:15.633Z,3.70
2023-01-15T01:34:48.629Z,3.73
2023-01-15T01:37:22.639Z,3.60
2023-01-15T01:39:56.996Z,3.60
2023-01-15T01:42:29.679Z,3.50
2023-01-15T01:45:07.664Z,3.50
2023-01-15T01:47:40.888Z,3.40
2023-01-15T01:50:16.123Z,3.20
2023-01-15T01:53:02.939Z,3.30
2023-01-15T01:55:36.891Z,3.03
2023-01-15T01:58:11.827Z,3.20
2023-01-15T02:00:46.825Z,3.40
2023-01-15T02:03:21.005Z,3.60
2023-01-15T02:05:56.031Z,3.80
2023-01-15T02:08:29.054Z,3.80
2023-01-15T02:11:02.163Z,4.00
2023-01-15T02:13:36.993Z,4.10
2023-01-15T02:16:14.469Z,4.20
2023-01-15T02:19:04.607Z,4.23
2023-01-15T02:21:56.201Z,3.90
2023-01-15T02:25:06.017Z,3.83
2023-01-15T02:27:39.412Z,4.10
2023-01-15T02:30:14.906Z,4.20
2023-01-15T02:33:02.395Z,4.40
2023-01-15T02:35:40.295Z,4.40
2023-01-15T02:38:16.171Z,4.30
2023-01-15T02:40:50.072Z,4.03
2023-01-15T02:43:24.541Z,4.30
2023-01-15T02:45:59.166Z,3.90
2023-01-15T02:48:34.378Z,4.00
2023-01-15T02:51:09.110Z,3.70
2023-01-15T02:53:43.511Z,4.00
2023-01-15T02:56:21.701Z,4.20
2023-01-15T02:58:57.042Z,4.10
2023-01-15T03:01:34.919Z,3.90
2023-01-15T03:04:16.941Z,4.00
2023-01-15T03:06:53.076Z,4.07
2023-01-15T03:09:27.370Z,4.00
2023-01-15T03:12:11.174Z,4.00
2023-01-15T03:14:45.803Z,4.00
2023-01-15T03:17:20.498Z,4.30
2023-01-15T03:20:03.863Z,4.20
2023-01-15T03:22:42.272Z,4.20
2023-01-15T03:25:17.008Z,4.03
2023-01-15T03:27:50.176Z,4.00
2023-01-15T03:30:24.677Z,3.90
2023-01-15T03:32:58.814Z,3.90
2023-01-15T03:35:52.939Z,3.90
2023-01-15T03:38:27.403Z,4.00
2023-01-15T03:41:08.054Z,4.00
2023-01-15T03:43:52.761Z,4.30
2023-01-15T03:46:27.832Z,4.13
2023-01-15T03:49:05.459Z,4.07
2023-01-15T03:51:55.427Z,4.20
2023-01-15T03:54:30.300Z,4.10
2023-01-15T03:57:19.097Z,4.00
2023-01-15T03:59:59.148Z,4.03
2023-01-15T04:02:33.562Z,4.40
2023-01-15T04:05:07.055Z,4.13
2023-01-15T04:07:40.364Z,3.90
2023-01-15T04:10:14.830Z,3.97
2023-01-15T04:12:47.720Z,3.80
2023-01-15T04:15:21.000Z,4.20
2023-01-15T04:17:53.953Z,4.00
2023-01-15T04:20:27.014Z,3.87
2023-01-15T04:22:59.716Z,3.90
2023-01-15T04:25:32.533Z,4.17
2023-01-15T04:28:05.509Z,3.80
2023-01-15T04:30:38.806Z,4.00
2023-01-15T04:33:11.669Z,4.00
2023-01-15T04:35:44.815Z,4.00
2023-01-15T04:38:17.637Z,4.10
2023-01-15T04:41:08.443Z,4.20
2023-01-15T04:43:59.384Z,4.00
2023-01-15T04:46:32.267Z,4.30
2023-01-15T04:49:05.199Z,4.10
2023-01-15T04:51:37.849Z,4.47
2023-01-15T04:54:11.797Z,4.00
2023-01-15T04:56:49.216Z,3.97
2023-01-15T04:59:23.111Z,4.00
2023-01-15T05:02:05.011Z,4.10
2023-01-15T05:04:29.906Z,3.90
2023-01-15T05:07:04.251Z,4.00
2023-01-15T05:09:37.339Z,4.13
2023-01-15T05:12:10.517Z,4.00
2023-01-15T05:14:43.333Z,4.20
2023-01-15T05:17:15.970Z,4.13
2023-01-15T05:19:48.977Z,4.30
2023-01-15T05:22:21.983Z,4.20
2023-01-15T05:24:55.445Z,3.90
2023-01-15T05:27:28.394Z,4.03
2023-01-15T05:30:01.225Z,4.00
2023-01-15T05:32:34.984Z,4.00
2023-01-15T05:35:07.756Z,4.20
2023-01-15T05:37:40.459Z,3.90
2023-01-15T05:40:19.079Z,3.90
2023-01-15T05:42:52.298Z,4.10
2023-01-15T05:45:25.316Z,3.90
2023-01-15T05:48:00.949Z,3.93
2023-01-15T05:50:33.758Z,4.10
2023-01-15T05:53:06.914Z,3.70
2023-01-15T05:55:39.775Z,3.80
2023-01-15T05:58:12.830Z,4.00
2023-01-15T06:00:45.760Z,3.90
2023-01-15T06:03:18.768Z,3.80
2023-01-15T06:05:56.774Z,3.60
2023-01-15T06:08:30.007Z,3.90
2023-01-15T06:11:02.776Z,3.80
2023-01-15T06:13:35.930Z,3.70
2023-01-15T06:16:09.298Z,3.80
2023-01-15T06:18:42.237Z,3.60
2023-01-15T06:21:16.168Z,3.60
2023-01-15T06:23:48.974Z,3.70
2023-01-15T06:26:22.489Z,3.80
2023-01-15T06:28:55.610Z,4.00
2023-01-15T06:31:32.652Z,3.73
2023-01-15T06:34:09.984Z,3.67
2023-01-15T06:36:42.717Z,3.70
2023-01-15T06:39:19.718Z,4.00
2023-01-15T06:42:10.554Z,3.77
2023-01-15T06:45:01.446Z,3.57
2023-01-15T06:47:34.412Z,3.67
2023-01-15T06:50:07.339Z,3.90
2023-01-15T06:52:40.119Z,3.50
2023-01-15T06:55:13.641Z,3.80
2023-01-15T06:57:46.651Z,4.00
2023-01-15T07:00:20.589Z,3.80
2023-01-15T07:02:53.530Z,3.80
2023-01-15T07:05:30.684Z,3.60
2023-01-15T07:08:05.993Z,3.60
2023-01-15T07:10:42.346Z,3.60
2023-01-15T07:13:15.241Z,3.50
2023-01-15T07:15:48.197Z,3.50
2023-01-15T07:18:20.977Z,3.70
2023-01-15T07:20:54.908Z,3.83
2023-01-15T07:23:28.262Z,3.80
2023-01-15T07:26:01.294Z,3.90
2023-01-15T07:28:34.201Z,3.67
2023-01-15T07:31:07.379Z,3.90
2023-01-15T07:33:40.123Z,3.90
2023-01-15T07:36:13.359Z,4.03
2023-01-15T07:38:46.289Z,3.90
2023-01-15T07:41:36.836Z,3.87
2023-01-15T07:44:27.445Z,3.80
2023-01-15T07:47:18.284Z,4.10
2023-01-15T07:49:51.955Z,3.70
2023-01-15T07:52:25.862Z,3.80
2023-01-15T07:54:59.165Z,3.80
2023-01-15T07:57:32.003Z,3.80
2023-01-15T08:00:04.935Z,3.80
2023-01-15T08:02:37.770Z,3.20
2023-01-15T08:05:11.526Z,3.30
2023-01-15T08:07:45.508Z,3.20
2023-01-15T08:10:18.688Z,3.37
2023-01-15T08:13:10.569Z,3.20
2023-01-15T08:15:46.649Z,3.40
2023-01-15T08:18:19.672Z,3.50
2023-01-15T08:20:52.535Z,3.30
2023-01-15T08:23:25.364Z,3.53
2023-01-15T08:25:58.288Z,3.60
2023-01-15T08:28:31.538Z,3.60
2023-01-15T08:31:04.363Z,3.57
2023-01-15T08:33:37.297Z,3.30
2023-01-15T08:36:10.861Z,3.30
2023-01-15T08:38:43.661Z,3.40
2023-01-15T08:41:16.612Z,3.30
2023-01-15T08:43:49.639Z,3.10
2023-01-15T08:46:22.698Z,3.43
2023-01-15T08:48:55.981Z,3.30
2023-01-15T08:51:31.694Z,3.30
2023-01-15T08:54:04.759Z,3.30
2023-01-15T08:56:39.123Z,3.40
2023-01-15T08:59:12.053Z,3.40
2023-01-15T09:01:45.110Z,3.50
2023-01-15T09:04:20.227Z,3.33
2023-01-15T09:06:54.201Z,3.60
2023-01-15T09:09:27.203Z,3.50
2023-01-15T09:12:00.311Z,3.60
2023-01-15T09:14:58.915Z,3.50
2023-01-15T09:17:09.459Z,3.20
2023-01-15T09:19:42.341Z,3.60
2023-01-15T09:22:15.552Z,3.80
2023-01-15T09:24:49.115Z,3.70
2023-01-15T09:27:22.651Z,3.80
2023-01-15T09:29:55.568Z,3.50
2023-01-15T09:32:28.398Z,3.30
2023-01-15T09:35:01.417Z,3.60
2023-01-15T09:37:34.405Z,3.70
2023-01-15T09:40:08.387Z,3.70
2023-01-15T09:42:46.505Z,3.97
2023-01-15T09:45:27.777Z,3.97
2023-01-15T09:48:08.191Z,4.10
2023-01-15T09:50:58.685Z,3.57
2023-01-15T09:53:52.279Z,3.63
2023-01-15T09:56:29.707Z,3.60
2023-01-15T09:59:04.711Z,3.80
2023-01-15T10:01:38.588Z,3.70
2023-01-15T10:04:22.451Z,3.70
2023-01-15T10:07:12.065Z,3.67
2023-01-15T10:09:45.949Z,3.60
2023-01-15T10:12:39.108Z,3.87
2023-01-15T10:15:29.123Z,3.90
2023-01-15T10:18:02.962Z,4.00
2023-01-15T10:20:46.221Z,3.60
2023-01-15T10:23:27.559Z,3.90
2023-01-15T10:26:02.235Z,3.70
2023-01-15T10:28:43.031Z,3.90
2023-01-15T10:31:19.000Z,3.50
2023-01-15T10:34:03.919Z,3.70
2023-01-15T10:36:47.813Z,3.60
2023-01-15T10:39:25.595Z,4.03
2023-01-15T10:42:00.650Z,3.90
2023-01-15T10:44:40.995Z,3.90
2023-01-15T10:47:19.006Z,3.90
2023-01-15T10:49:52.523Z,4.00
2023-01-15T10:52:36.987Z,3.90
2023-01-15T10:55:15.957Z,4.00
2023-01-15T10:58:08.936Z,3.90
2023-01-15T11:00:28.031Z,3.47
2023-01-15T11:03:12.010Z,3.90
2023-01-15T11:05:44.847Z,3.70
2023-01-15T11:09:05.803Z,4.00
2023-01-15T11:10:53.535Z,4.30
2023-01-15T11:13:45.485Z,4.20
2023-01-15T11:16:40.508Z,4.10
2023-01-15T11:19:35.581Z,4.00
2023-01-15T11:22:22.051Z,4.20
2023-01-15T11:25:02.960Z,4.60
2023-01-15T11:27:37.428Z,4.60
2023-01-15T11:30:12.325Z,4.50
2023-01-15T11:32:45.261Z,4.30
2023-01-15T11:35:21.868Z,4.30
2023-01-15T11:37:55.895Z,4.10
2023-01-15T11:40:28.774Z,4.30
2023-01-15T11:43:19.351Z,3.67
2023-01-15T11:46:13.855Z,4.00
2023-01-15T11:49:08.465Z,4.00
2023-01-15T11:51:46.030Z,3.60
2023-01-15T11:54:20.338Z,4.10
2023-01-15T11:56:53.169Z,4.40
2023-01-15T11:59:26.540Z,4.50
2023-01-15T12:02:16.686Z,4.30
2023-01-15T12:04:55.461Z,4.50
2023-01-15T12:07:29.088Z,4.80
2023-01-15T12:10:45.332Z,4.70
2023-01-15T12:13:50.179Z,4.67
2023-01-15T12:16:27.621Z,4.53
2023-01-15T12:19:21.903Z,4.77
2023-01-15T12:22:12.063Z,4.70
2023-01-15T12:25:02.710Z,4.43
2023-01-15T12:28:04.392Z,4.77
2023-01-15T12:30:54.881Z,4.70
2023-01-15T12:33:38.288Z,4.30
2023-01-15T12:36:34.065Z,4.37
2023-01-15T12:39:09.189Z,4.20
2023-01-15T12:42:01.369Z,4.20
2023-01-15T12:44:59.309Z,4.10
2023-01-15T12:47:43.369Z,4.40
2023-01-15T12:50:18.658Z,4.73
2023-01-15T12:52:53.830Z,4.30
2023-01-15T12:55:34.163Z,4.20
2023-01-15T12:58:09.053Z,4.20
2023-01-15T13:00:44.421Z,4.17
2023-01-15T13:03:33.770Z,4.10
2023-01-15T13:06:09.921Z,4.10
2023-01-15T13:09:05.935Z,4.23
2023-01-15T13:11:39.008Z,4.20
2023-01-15T13:14:13.837Z,4.50
2023-01-15T13:17:03.607Z,4.53
2023-01-15T13:19:44.005Z,4.70
2023-01-15T13:22:24.591Z,4.90
2023-01-15T13:25:11.400Z,4.90
2023-01-15T13:27:51.998Z,4.70
2023-01-15T13:30:45.489Z,4.73
2023-01-15T13:33:20.256Z,4.90
2023-01-15T13:35:55.216Z,4.70
2023-01-15T13:38:30.303Z,5.00
2023-01-15T13:41:03.261Z,4.60
2023-01-15T13:43:37.879Z,4.70
2023-01-15T13:46:15.934Z,4.50
2023-01-15T13:48:58.321Z,4.60
2023-01-15T13:51:42.629Z,4.17
2023-01-15T13:54:20.788Z,4.27
2023-01-15T13:56:53.669Z,4.20
2023-01-15T13:59:39.840Z,4.20
2023-01-15T14:02:36.544Z,4.40
2023-01-15T14:05:17.534Z,4.20
2023-01-15T14:07:50.438Z,4.10
2023-01-15T14:10:28.358Z,3.83
2023-01-15T14:13:27.289Z,4.00
2023-01-15T14:16:02.286Z,3.80
2023-01-15T14:19:08.812Z,4.13
2023-01-15T14:21:49.569Z,4.10
2023-01-15T14:24:52.025Z,4.00
2023-01-15T14:27:42.334Z,4.20
2023-01-15T14:30:25.796Z,4.30
2023-01-15T14:33:12.153Z,4.33
2023-01-15T14:35:46.894Z,4.30
2023-01-15T14:38:24.090Z,4.03
2023-01-15T14:41:04.739Z,4.10
2023-01-15T14:43:39.563Z,4.10
2023-01-15T14:46:32.579Z,3.80
2023-01-15T14:49:06.197Z,4.00
2023-01-15T14:51:41.203Z,4.23
2023-01-15T14:54:16.608Z,4.00
2023-01-15T14:56:54.487Z,3.90
2023-01-15T14:59:38.987Z,4.47
2023-01-15T15:02:19.871Z,4.10
2023-01-15T15:04:58.067Z,3.80
2023-01-15T15:07:32.903Z,4.10
2023-01-15T15:10:19.291Z,4.10
2023-01-15T15:13:14.867Z,4.20
2023-01-15T15:16:01.789Z,4.10
2023-01-15T15:18:56.944Z,4.10
2023-01-15T15:21:31.848Z,4.20
2023-01-15T15:24:23.070Z,4.30
2023-01-15T15:26:55.931Z,4.20
2023-01-15T15:29:29.600Z,4.10
2023-01-15T15:32:05.405Z,4.23
2023-01-15T15:34:43.212Z,4.50
2023-01-15T15:37:32.731Z,4.30
2023-01-15T15:40:10.680Z,4.10
2023-01-15T15:43:02.885Z,4.20
2023-01-15T15:45:53.355Z,4.27
2023-01-15T15:48:47.381Z,4.40
2023-01-15T15:51:39.985Z,4.40
2023-01-15T15:54:21.721Z,4.50
2023-01-15T15:57:02.597Z,4.30
2023-01-15T15:59:42.879Z,4.40
2023-01-15T16:02:36.702Z,4.40
2023-01-15T16:05:33.603Z,4.40
2023-01-15T16:08:23.030Z,4.17
2023-01-15T16:10:57.567Z,4.20
2023-01-15T16:13:35.273Z,4.30
2023-01-15T16:16:10.067Z,4.10
2023-01-15T16:18:45.849Z,3.70
2023-01-15T16:21:29.715Z,3.80
2023-01-15T16:24:07.481Z,3.73
2023-01-15T16:26:45.277Z,4.00
2023-01-15T16:29:23.006Z,3.73
2023-01-15T16:31:57.606Z,4.00
2023-01-15T16:34:35.582Z,4.20
2023-01-15T16:37:09.864Z,4.10
2023-01-15T16:39:44.104Z,4.10
2023-01-15T16:42:38.255Z,4.20
2023-01-15T16:45:13.579Z,4.00
2023-01-15T16:47:48.126Z,3.70
2023-01-15T16:50:31.828Z,3.70
2023-01-15T16:53:06.425Z,3.80
2023-01-15T16:55:44.566Z,3.90
2023-01-15T16:58:24.521Z,3.70
2023-01-15T17:00:58.506Z,3.80
2023-01-15T17:03:32.851Z,3.90
2023-01-15T17:06:11.084Z,4.00
2023-01-15T17:08:45.383Z,3.90
2023-01-15T17:11:35.352Z,4.00
2023-01-15T17:14:16.742Z,4.10
2023-01-15T17:16:49.679Z,4.00
2023-01-15T17:19:22.970Z,4.20
2023-01-15T17:21:55.960Z,4.10
2023-01-15T17:24:28.798Z,4.00
2023-01-15T17:27:01.754Z,4.00
2023-01-15T17:29:34.832Z,3.90
2023-01-15T17:32:08.050Z,4.10
2023-01-15T17:34:40.874Z,4.10
2023-01-15T17:37:13.833Z,4.10
2023-01-15T17:39:46.660Z,4.20
2023-01-15T17:42:20.234Z,3.90
2023-01-15T17:44:53.259Z,3.80
2023-01-15T17:47:26.277Z,4.10
2023-01-15T17:49:59.395Z,3.80
2023-01-15T17:52:32.526Z,3.80
2023-01-15T17:55:23.477Z,3.80
2023-01-15T17:58:13.567Z,3.80
2023-01-15T18:01:07.513Z,3.90
2023-01-15T18:03:59.503Z,3.70
2023-01-15T18:06:32.399Z,3.70
2023-01-15T18:09:07.086Z,3.90
2023-01-15T18:11:40.407Z,3.70
2023-01-15T18:14:13.398Z,3.80
2023-01-15T18:16:46.520Z,3.70
2023-01-15T18:19:19.358Z,4.20
2023-01-15T18:21:52.581Z,3.50
2023-01-15T18:24:25.717Z,3.60
2023-01-15T18:26:59.455Z,3.50
2023-01-15T18:29:33.142Z,3.40
2023-01-15T18:32:05.955Z,3.60
2023-01-15T18:34:39.010Z,3.60
2023-01-15T18:37:12.048Z,3.77
2023-01-15T18:39:45.050Z,3.40
2023-01-15T18:42:19.021Z,3.30
2023-01-15T18:45:08.964Z,3.40
2023-01-15T18:47:42.918Z,3.30
2023-01-15T18:50:16.059Z,3.40
2023-01-15T18:52:55.446Z,3.20
2023-01-15T18:55:28.758Z,3.20
2023-01-15T18:58:01.885Z,3.50
2023-01-15T19:00:35.050Z,3.70
2023-01-15T19:03:08.513Z,3.40
2023-01-15T19:05:41.459Z,3.30
2023-01-15T19:08:14.407Z,3.37
2023-01-15T19:10:47.185Z,3.20
2023-01-15T19:13:20.680Z,3.27
2023-01-15T19:16:10.886Z,3.30
2023-01-15T19:18:48.031Z,3.30
2023-01-15T19:21:22.065Z,3.77
2023-01-15T19:23:55.659Z,3.47
2023-01-15T19:26:28.448Z,3.30
2023-01-15T19:29:01.548Z,3.40
2023-01-15T19:31:41.321Z,3.40
2023-01-15T19:34:32.562Z,3.50
2023-01-15T19:36:50.523Z,3.13
2023-01-15T19:39:23.664Z,3.10
2023-01-15T19:42:13.762Z,3.30
2023-01-15T19:45:04.386Z,3.40
2023-01-15T19:47:56.728Z,3.30
2023-01-15T19:50:31.562Z,3.10
2023-01-15T19:53:05.232Z,3.20
2023-01-15T19:55:39.888Z,3.50
2023-01-15T19:58:14.371Z,3.40
2023-01-15T20:00:49.479Z,3.60
2023-01-15T20:03:22.650Z,3.40
2023-01-15T20:05:55.797Z,3.10
2023-01-15T20:08:28.825Z,3.00
2023-01-15T20:11:01.594Z,3.40
2023-01-15T20:13:54.117Z,3.30
2023-01-15T20:16:27.411Z,3.30
2023-01-15T20:19:00.272Z,3.10
2023-01-15T20:21:33.232Z,3.40
2023-01-15T20:24:06.255Z,3.10
2023-01-15T20:26:38.860Z,2.90
2023-01-15T20:29:11.714Z,3.00
2023-01-15T20:31:44.652Z,2.97
2023-01-15T20:34:17.575Z,2.80
2023-01-15T20:36:50.491Z,2.90
2023-01-15T20:39:23.300Z,2.60
2023-01-15T20:42:13.464Z,2.83
2023-01-15T20:44:59.269Z,2.90
2023-01-15T20:47:50.254Z,2.90
2023-01-15T20:50:23.610Z,2.80
2023-01-15T20:52:57.007Z,3.33
2023-01-15T20:55:38.898Z,2.90
2023-01-15T20:58:08.065Z,3.10
2023-01-15T21:00:41.085Z,2.80
2023-01-15T21:03:15.368Z,2.80
2023-01-15T21:05:48.269Z,2.70
2023-01-15T21:08:22.416Z,2.60
2023-01-15T21:10:56.735Z,2.60
2023-01-15T21:13:29.429Z,2.70
2023-01-15T21:16:04.452Z,2.30
2023-01-15T21:18:37.804Z,2.40
2023-01-15T21:21:21.144Z,2.50
2023-01-15T21:23:53.817Z,2.50
2023-01-15T21:26:26.833Z,2.50
2023-01-15T21:28:59.621Z,2.50
2023-01-15T21:31:32.344Z,2.40
2023-01-15T21:34:06.228Z,2.20
2023-01-15T21:36:39.302Z,2.20
2023-01-15T21:39:13.357Z,2.30
2023-01-15T21:42:03.847Z,2.30
2023-01-15T21:44:46.119Z,2.10
2023-01-15T21:47:20.845Z,2.30
2023-01-15T21:49:53.842Z,2.20
2023-01-15T21:52:26.995Z,2.30
2023-01-15T21:54:59.836Z,2.50
2023-01-15T21:57:33.870Z,2.20
2023-01-15T22:00:07.932Z,2.40
2023-01-15T22:02:41.090Z,2.30
2023-01-15T22:05:14.145Z,2.27
2023-01-15T22:07:46.791Z,2.20
2023-01-15T22:10:19.922Z,2.27
2023-01-15T22:12:52.701Z,2.10
2023-01-15T22:15:25.480Z,2.20
2023-01-15T22:18:01.569Z,2.20
2023-01-15T22:20:34.588Z,2.30
2023-01-15T22:23:07.744Z,2.30
2023-01-15T22:25:42.115Z,2.30
2023-01-15T22:28:15.080Z,2.20
2023-01-15T22:30:48.267Z,2.30
2023-01-15T22:33:21.179Z,2.30
2023-01-15T22:36:03.314Z,2.40
2023-01-15T22:38:37.096Z,2.30
2023-01-15T22:41:10.081Z,2.30
2023-01-15T22:43:42.792Z,2.20
2023-01-15T22:46:16.216Z,2.00
2023-01-15T22:48:48.947Z,2.17
2023-01-15T22:51:21.831Z,2.10
2023-01-15T22:53:59.070Z,2.03
2023-01-15T22:56:32.495Z,2.00
2023-01-15T22:59:05.726Z,2.00
2023-01-15T23:01:38.718Z,1.90
2023-01-15T23:04:19.471Z,2.00
2023-01-15T23:06:53.477Z,1.93
2023-01-15T23:09:27.865Z,2.00
2023-01-15T23:12:00.761Z,1.90
2023-01-15T23:14:33.804Z,1.90
2023-01-15T23:17:06.505Z,2.00
2023-01-15T23:19:39.582Z,1.80
2023-01-15T23:22:12.331Z,2.00
2023-01-15T23:24:45.516Z,1.90
2023-01-15T23:27:18.279Z,1.90
2023-01-15T23:29:51.581Z,1.90
2023-01-15T23:32:24.587Z,2.00
2023-01-15T23:34:57.697Z,1.90
2023-01-15T23:37:30.447Z,1.90
2023-01-15T23:40:03.355Z,1.80
2023-01-15T23:42:53.908Z,1.90
2023-01-15T23:45:44.520Z,1.83
2023-01-15T23:48:17.352Z,1.90
2023-01-15T23:50:50.192Z,2.00
2023-01-15T23:53:23.232Z,2.00
2023-01-15T23:55:56.214Z,2.10
2023-01-15T23:58:29.154Z,2.00
